Time;durP1;ratioP1;P1;durP2;ratioP2;P2;SDS_P1;SDS_P2;PMS_P1;PMS_P2;Temp;Humidity;BMP_temperature;BMP_pressure;BME280_temperature;BME280_humidity;BME280_pressure;Samples;Min_cycle;Max_cycle;Signal;HPM_P1;HPM_P2
2024/04/03 00:01:35;;;;;;;67.80;64.22;;;;;;;10.10;100.00;100924.13;5095309;28;20047;-74
2024/04/03 00:04:02;;;;;;;46.40;43.67;;;;;;;10.24;100.00;100923.16;5103567;28;20082;-74
2024/04/03 00:06:28;;;;;;;40.83;38.22;;;;;;;10.10;100.00;100932.06;5094062;28;20071;-78
2024/04/03 00:09:00;;;;;;;38.08;35.50;;;;;;;9.97;100.00;100930.19;5091186;28;20548;-78
2024/04/03 00:11:26;;;;;;;42.15;39.55;;;;;;;9.86;100.00;100931.56;5106586;28;20047;-74
2024/04/03 00:13:53;;;;;;;45.38;42.67;;;;;;;9.86;100.00;100928.91;5104751;28;20110;-74
2024/04/03 00:16:19;;;;;;;43.60;41.00;;;;;;;9.88;100.00;100928.72;5097710;28;20055;-74
2024/04/03 00:18:47;;;;;;;46.67;43.97;;;;;;;9.65;100.00;100931.63;5107360;28;20048;-78
2024/04/03 00:21:13;;;;;;;39.25;36.90;;;;;;;9.59;100.00;100935.91;5091450;28;20443;-78
2024/04/03 00:23:40;;;;;;;48.88;46.17;;;;;;;9.60;100.00;100926.91;5109870;28;20051;-78
2024/04/03 00:26:06;;;;;;;48.47;45.67;;;;;;;9.65;100.00;100934.28;5092800;28;20052;-77
2024/04/03 00:28:34;;;;;;;45.92;43.30;;;;;;;9.53;100.00;100936.66;5103655;28;20672;-77
2024/04/03 00:31:01;;;;;;;41.90;39.40;;;;;;;9.54;100.00;100935.66;5099923;28;20051;-77
2024/04/03 00:33:29;;;;;;;40.63;38.17;;;;;;;9.25;100.00;100941.94;5096708;28;20081;-74
2024/04/03 00:35:58;;;;;;;54.00;50.80;;;;;;;9.07;100.00;100952.19;5101430;27;20100;-78
2024/04/03 00:38:28;;;;;;;56.38;53.08;;;;;;;9.18;100.00;100947.19;5098136;28;20411;-78
2024/04/03 00:40:56;;;;;;;56.65;53.45;;;;;;;8.73;100.00;100950.22;5108105;28;20062;-78
2024/04/03 00:43:23;;;;;;;56.42;53.10;;;;;;;8.83;100.00;100943.59;5108492;28;20059;-78
2024/04/03 00:46:00;;;;;;;40.28;37.97;;;;;;;8.90;100.00;100938.38;5104266;28;20051;-78
2024/04/03 00:48:36;;;;;;;37.45;35.35;;;;;;;8.39;100.00;100941.09;5104313;28;20071;-78
2024/04/03 00:51:04;;;;;;;35.33;33.22;;;;;;;8.79;100.00;100933.59;5099191;28;20080;-74
2024/04/03 00:53:32;;;;;;;36.60;34.40;;;;;;;9.13;100.00;100932.88;5099082;28;20051;-74
2024/04/03 00:55:59;;;;;;;34.25;32.25;;;;;;;8.77;100.00;100935.59;5106807;28;20508;-74
2024/04/03 00:58:26;;;;;;;38.53;36.33;;;;;;;9.02;100.00;100936.88;5090019;28;20492;-74
2024/04/03 01:00:52;;;;;;;43.05;40.65;;;;;;;9.20;100.00;100935.56;5098360;28;20067;-74
2024/04/03 01:03:20;;;;;;;38.28;36.08;;;;;;;9.12;100.00;100923.28;5075982;28;20071;-74
2024/04/03 01:05:47;;;;;;;40.88;38.58;;;;;;;9.44;100.00;100929.88;5103159;28;20499;-75
2024/04/03 01:08:15;;;;;;;41.67;39.17;;;;;;;9.70;100.00;100920.44;5099803;28;20094;-74
2024/04/03 01:10:41;;;;;;;36.58;34.40;;;;;;;9.79;100.00;100927.22;5101162;28;20058;-74
2024/04/03 01:13:14;;;;;;;42.55;40.05;;;;;;;10.02;100.00;100925.13;5100905;28;20051;-74
2024/04/03 01:15:40;;;;;;;42.53;40.13;;;;;;;9.88;100.00;100925.25;5091692;28;20117;-74
2024/04/03 01:18:07;;;;;;;41.03;38.63;;;;;;;9.95;100.00;100926.09;5094252;28;20560;-74
2024/04/03 01:20:33;;;;;;;38.58;36.38;;;;;;;10.10;100.00;100932.06;5102656;28;20059;-74
2024/04/03 01:23:01;;;;;;;38.90;36.50;;;;;;;10.43;100.00;100926.91;5097094;28;20050;-74
2024/04/03 01:25:34;;;;;;;39.75;37.28;;;;;;;10.27;100.00;100925.44;5104513;28;20047;-75
2024/04/03 01:28:01;;;;;;;43.08;40.58;;;;;;;10.24;100.00;100930.31;5101281;28;20055;-74
2024/04/03 01:30:27;;;;;;;45.35;42.85;;;;;;;10.19;100.00;100927.41;5095666;28;20059;-75
2024/04/03 01:32:56;;;;;;;45.63;43.22;;;;;;;10.18;100.00;100934.56;5102438;28;20054;-74
2024/04/03 01:35:22;;;;;;;44.40;42.00;;;;;;;10.49;100.00;100939.41;5106483;28;20047;-74
2024/04/03 01:37:56;;;;;;;42.33;39.92;;;;;;;10.42;100.00;100940.41;5095394;28;20090;-74
2024/04/03 01:40:22;;;;;;;49.40;46.85;;;;;;;10.19;100.00;100938.03;5098181;28;20048;-74
2024/04/03 01:42:52;;;;;;;47.55;44.95;;;;;;;10.17;100.00;100935.59;5106873;28;20490;-74
2024/04/03 01:45:20;;;;;;;44.17;41.78;;;;;;;10.15;100.00;100932.31;5091669;28;20713;-74
2024/04/03 01:47:48;;;;;;;46.67;44.28;;;;;;;10.23;100.00;100937.47;5102796;28;20059;-78
2024/04/03 01:50:19;;;;;;;46.70;44.17;;;;;;;10.62;100.00;100943.97;5099318;28;20051;-77
2024/04/03 01:52:46;;;;;;;43.15;40.35;;;;;;;10.15;100.00;100937.63;5094834;28;20132;-77
2024/04/03 01:55:12;;;;;;;38.25;35.85;;;;;;;10.24;100.00;100947.06;5089669;28;20059;-74
2024/04/03 01:57:39;;;;;;;38.80;36.40;;;;;;;10.14;100.00;100937.84;5105555;28;20078;-78
2024/04/03 02:00:13;;;;;;;39.40;37.10;;;;;;;10.05;100.00;100943.28;5094959;28;20043;-78
2024/04/03 02:02:40;;;;;;;45.00;42.70;;;;;;;10.28;100.00;100950.97;5102028;28;20074;-78
2024/04/03 02:05:06;;;;;;;46.67;44.10;;;;;;;10.53;100.00;100947.81;5093730;28;20063;-77
2024/04/03 02:07:33;;;;;;;51.70;49.10;;;;;;;10.36;100.00;100947.34;5093323;28;20101;-78
2024/04/03 02:10:08;;;;;;;51.83;49.22;;;;;;;10.38;100.00;100955.94;5104717;27;20104;-78
2024/04/03 02:12:47;;;;;;;51.42;48.83;;;;;;;10.16;100.00;100947.22;5109348;28;20052;-78
2024/04/03 02:15:16;;;;;;;45.33;42.83;;;;;;;10.14;100.00;100951.09;5087115;28;20056;-78
2024/04/03 02:17:45;;;;;;;42.83;40.53;;;;;;;10.25;100.00;100953.16;5103047;28;20056;-78
2024/04/03 02:20:14;;;;;;;43.30;41.00;;;;;;;10.34;100.00;100961.81;5094926;28;20051;-74
2024/04/03 02:22:47;;;;;;;39.97;37.58;;;;;;;10.28;100.00;100953.63;5092987;28;20154;-74
2024/04/03 02:25:14;;;;;;;44.60;42.10;;;;;;;10.83;100.00;100955.44;5099404;28;20048;-74
2024/04/03 02:27:41;;;;;;;46.78;43.97;;;;;;;10.63;100.00;100956.22;5097397;28;20048;-74
2024/04/03 02:30:16;;;;;;;42.22;39.83;;;;;;;10.16;100.00;100968.44;5097186;28;20102;-74
2024/04/03 02:32:42;;;;;;;42.17;39.67;;;;;;;10.23;100.00;100969.31;5090358;28;20082;-74
2024/04/03 02:35:09;;;;;;;36.20;34.00;;;;;;;10.05;100.00;100967.19;5096660;28;20048;-74
2024/04/03 02:37:35;;;;;;;49.42;46.92;;;;;;;10.31;100.00;100973.66;5103333;28;20101;-74
2024/04/03 02:40:03;;;;;;;42.13;39.72;;;;;;;10.46;100.00;100965.53;5108599;28;20047;-74
2024/04/03 02:42:29;;;;;;;43.55;41.33;;;;;;;10.41;100.00;100971.47;5101124;28;20061;-78
2024/04/03 02:44:57;;;;;;;37.83;35.72;;;;;;;10.37;100.00;100975.50;5095354;28;20793;-74
2024/04/03 02:47:27;;;;;;;32.83;31.02;;;;;;;10.47;100.00;100967.19;5099565;28;20434;-78
2024/04/03 02:49:54;;;;;;;37.72;35.72;;;;;;;10.41;100.00;100976.78;5095371;28;20430;-78
2024/04/03 02:52:20;;;;;;;53.15;50.55;;;;;;;10.54;100.00;100976.81;5095417;28;20056;-78
2024/04/03 02:54:47;;;;;;;48.85;46.42;;;;;;;10.57;100.00;100980.09;5100275;28;20051;-77
2024/04/03 02:57:17;;;;;;;49.58;47.08;;;;;;;10.55;100.00;100986.41;5101114;28;20059;-78
2024/04/03 02:59:44;;;;;;;54.38;51.60;;;;;;;10.50;100.00;100988.03;5100457;28;20048;-78
2024/04/03 03:02:11;;;;;;;57.85;55.05;;;;;;;10.65;100.00;100991.38;5093533;28;20048;-78
2024/04/03 03:04:43;;;;;;;51.53;48.83;;;;;;;10.38;100.00;100990.44;5102709;28;20517;-78
2024/04/03 03:07:13;;;;;;;60.35;56.85;;;;;;;10.37;100.00;100986.13;5099795;28;20051;-78
2024/04/03 03:09:40;;;;;;;70.00;65.80;;;;;;;10.27;100.00;100993.66;5103807;28;20051;-74
2024/04/03 03:12:06;;;;;;;77.50;72.70;;;;;;;10.95;100.00;100993.66;5100337;28;20071;-74
2024/04/03 03:14:34;;;;;;;39.50;37.40;;;;;;;10.51;100.00;100990.50;5106811;28;20130;-74
2024/04/03 03:17:00;;;;;;;36.70;34.72;;;;;;;10.46;100.00;101002.72;5093027;28;20051;-74
2024/04/03 03:19:38;;;;;;;39.00;36.90;;;;;;;10.58;100.00;100998.47;5106221;28;20502;-74
2024/04/03 03:22:06;;;;;;;36.25;34.25;;;;;;;10.28;100.00;101001.41;5100338;28;20055;-74
2024/04/03 03:24:33;;;;;;;35.60;33.60;;;;;;;10.75;100.00;101009.59;5110380;28;20058;-74
2024/04/03 03:27:11;;;;;;;36.78;34.78;;;;;;;10.27;100.00;101005.09;5111894;28;20048;-75
2024/04/03 03:29:39;;;;;;;34.88;32.97;;;;;;;10.49;100.00;101005.78;5107321;28;20097;-75
2024/04/03 03:32:05;;;;;;;34.40;32.50;;;;;;;10.16;100.00;101002.94;5109612;28;20126;-74
2024/04/03 03:34:32;;;;;;;32.17;30.30;;;;;;;10.07;100.00;101007.59;5101651;28;20797;-75
2024/04/03 03:37:00;;;;;;;32.70;30.80;;;;;;;10.00;100.00;101012.06;5102939;28;20419;-74
2024/04/03 03:39:28;;;;;;;28.85;27.25;;;;;;;10.63;100.00;101014.66;5094174;28;20048;-74
2024/04/03 03:41:55;;;;;;;31.98;30.27;;;;;;;9.95;100.00;101011.00;5103002;28;20051;-75
2024/04/03 03:44:24;;;;;;;28.15;26.65;;;;;;;9.96;100.00;101024.09;5106741;28;20067;-75
2024/04/03 03:46:50;;;;;;;28.27;26.52;;;;;;;9.91;100.00;101017.72;5105982;28;20527;-74
2024/04/03 03:54:48;;;;;;;31.67;29.58;;;;;;;9.76;100.00;101058.41;5097566;28;20458;-74
2024/04/03 03:57:15;;;;;;;30.95;28.95;;;;;;;9.91;100.00;101055.66;5107287;28;20043;-75
2024/04/03 03:59:46;;;;;;;32.92;30.83;;;;;;;10.16;100.00;101049.91;5096198;28;20048;-74
2024/04/03 04:02:13;;;;;;;32.05;29.85;;;;;;;10.18;100.00;101046.06;5085298;28;20138;-75
2024/04/03 04:04:39;;;;;;;33.22;31.13;;;;;;;9.85;100.00;101051.94;5097333;28;20056;-74
2024/04/03 04:07:07;;;;;;;37.28;34.65;;;;;;;10.08;100.00;101048.25;5104439;28;20051;-74
2024/04/03 04:09:33;;;;;;;34.00;31.70;;;;;;;10.11;100.00;101062.97;5101205;28;20044;-74
2024/04/03 04:12:01;;;;;;;34.50;32.25;;;;;;;10.25;100.00;101059.38;5092767;28;20055;-74
2024/04/03 04:14:28;;;;;;;29.02;27.10;;;;;;;10.53;100.00;101072.63;5097496;28;20057;-74
2024/04/03 04:17:04;;;;;;;25.20;23.60;;;;;;;11.01;100.00;101072.59;5097480;28;20055;-74
2024/04/03 04:19:31;;;;;;;27.88;26.08;;;;;;;10.01;100.00;101076.56;5092453;28;20052;-74
2024/04/03 04:21:58;;;;;;;25.67;23.88;;;;;;;10.20;100.00;101075.06;5096375;28;20056;-75
2024/04/03 04:24:24;;;;;;;26.00;24.20;;;;;;;9.87;100.00;101086.25;5109324;28;20047;-75
2024/04/03 04:26:56;;;;;;;24.30;22.60;;;;;;;10.07;100.00;101081.91;5099623;28;20074;-74
2024/04/03 04:29:30;;;;;;;26.15;24.33;;;;;;;10.02;100.00;101091.47;5104709;28;20095;-74
2024/04/03 04:31:58;;;;;;;27.15;25.25;;;;;;;10.37;100.00;101087.03;5098856;28;20077;-74
2024/04/03 04:34:27;;;;;;;28.48;26.48;;;;;;;10.41;100.00;101092.75;5098470;28;20092;-78
2024/04/03 04:36:54;;;;;;;28.15;26.25;;;;;;;10.21;100.00;101098.75;5098279;28;20058;-78
2024/04/03 04:39:21;;;;;;;27.88;25.88;;;;;;;10.15;100.00;101106.69;5096848;28;20495;-78
2024/04/03 04:41:57;;;;;;;26.73;24.85;;;;;;;10.44;100.00;101095.88;5098700;28;20515;-78
2024/04/03 04:44:23;;;;;;;27.02;25.23;;;;;;;10.89;100.00;101100.78;5091440;28;20051;-78
2024/04/03 04:46:53;;;;;;;29.73;27.73;;;;;;;10.45;100.00;101105.47;5099213;28;20059;-78
2024/04/03 04:49:22;;;;;;;28.52;26.63;;;;;;;11.18;100.00;101100.47;5097424;28;20055;-78
2024/04/03 04:51:49;;;;;;;30.42;28.52;;;;;;;11.48;100.00;101110.78;5096610;28;20048;-78
2024/04/03 04:54:16;;;;;;;26.67;24.90;;;;;;;10.88;100.00;101112.44;5099939;28;20044;-78
2024/04/03 04:56:44;;;;;;;26.55;24.75;;;;;;;11.22;100.00;101116.84;5102763;28;20060;-75
2024/04/03 04:59:11;;;;;;;27.85;25.95;;;;;;;12.59;100.00;101115.47;5099608;28;20070;-75
2024/04/03 05:01:39;;;;;;;29.05;27.15;;;;;;;11.71;100.00;101118.38;5098823;28;20047;-74
2024/04/03 05:04:07;;;;;;;30.15;28.15;;;;;;;10.96;100.00;101109.59;5100028;28;20047;-78
2024/04/03 05:06:35;;;;;;;25.92;24.23;;;;;;;11.54;100.00;101117.13;5104800;28;20051;-78
2024/04/03 05:09:02;;;;;;;28.33;26.42;;;;;;;11.39;100.00;101118.13;5088943;28;20044;-77
2024/04/03 05:11:30;;;;;;;27.92;26.13;;;;;;;11.60;100.00;101124.28;5094044;28;20054;-78
2024/04/03 05:13:56;;;;;;;27.80;26.10;;;;;;;11.35;100.00;101127.53;5108095;28;20075;-78
2024/04/03 05:16:24;;;;;;;33.85;28.20;;;;;;;11.84;100.00;101121.03;5097454;28;20059;-78
2024/04/03 05:18:51;;;;;;;28.02;26.20;;;;;;;11.31;100.00;101125.44;5096234;28;20044;-78
2024/04/03 05:21:22;;;;;;;31.13;29.13;;;;;;;11.43;100.00;101132.63;5104470;27;20047;-74
2024/04/03 05:23:48;;;;;;;29.27;27.48;;;;;;;11.73;100.00;101121.63;5100497;28;20055;-78
2024/04/03 05:26:17;;;;;;;31.08;29.08;;;;;;;11.58;100.00;101118.34;5109176;28;20055;-78
2024/04/03 05:28:43;;;;;;;30.77;28.67;;;;;;;11.59;100.00;101123.47;5097588;28;20060;-78
2024/04/03 05:31:18;;;;;;;33.13;31.02;;;;;;;11.63;100.00;101116.72;5100595;28;20051;-78
2024/04/03 05:33:45;;;;;;;31.17;29.08;;;;;;;11.61;100.00;101125.94;5104628;28;20060;-78
2024/04/03 05:36:12;;;;;;;30.95;28.95;;;;;;;11.79;100.00;101133.31;5094426;28;20048;-78
2024/04/03 05:38:41;;;;;;;27.73;25.83;;;;;;;11.80;100.00;101142.94;5101898;28;20044;-78
2024/04/03 05:41:09;;;;;;;30.35;28.35;;;;;;;11.70;100.00;101136.16;5101882;28;20083;-78
2024/04/03 05:43:35;;;;;;;29.40;27.50;;;;;;;11.94;100.00;101143.81;5092522;28;20047;-78
2024/04/03 05:46:03;;;;;;;27.90;26.00;;;;;;;12.29;100.00;101142.56;5102966;28;20059;-78
2024/04/03 05:48:29;;;;;;;29.15;27.25;;;;;;;12.09;100.00;101142.56;5107965;28;20075;-78
2024/04/03 05:51:03;;;;;;;32.10;30.00;;;;;;;12.06;100.00;101142.16;5102176;28;20132;-78
2024/04/03 05:53:30;;;;;;;34.67;32.58;;;;;;;12.56;100.00;101138.00;5096212;28;20055;-78
2024/04/03 05:56:00;;;;;;;31.58;29.58;;;;;;;12.19;100.00;101142.16;5100451;28;20054;-78
2024/04/03 05:58:27;;;;;;;30.75;28.85;;;;;;;12.87;100.00;101130.34;5098427;28;20052;-78
2024/04/03 06:00:56;;;;;;;31.50;29.58;;;;;;;12.31;100.00;101155.66;5106030;28;20051;-78
2024/04/03 06:03:22;;;;;;;32.78;30.77;;;;;;;12.83;100.00;101152.09;5101806;28;20052;-77
2024/04/03 06:05:53;;;;;;;31.83;29.92;;;;;;;12.60;100.00;101154.41;5098334;28;20055;-78
2024/04/03 06:08:20;;;;;;;31.95;30.05;;;;;;;12.67;100.00;101154.38;5101968;28;20051;-78
2024/04/03 06:10:48;;;;;;;30.90;28.90;;;;;;;13.60;100.00;101156.69;5094966;28;20503;-78
2024/04/03 06:13:16;;;;;;;29.00;27.10;;;;;;;13.01;100.00;101154.06;5089031;28;20048;-78
2024/04/03 06:15:44;;;;;;;28.48;26.58;;;;;;;12.82;100.00;101145.09;5103747;28;20070;-78
2024/04/03 06:18:11;;;;;;;30.00;28.20;;;;;;;12.76;100.00;101153.94;5089168;28;20062;-78
2024/04/03 06:20:38;;;;;;;34.10;32.10;;;;;;;14.53;100.00;101161.28;5092873;28;20070;-77
2024/04/03 06:23:04;;;;;;;34.03;31.92;;;;;;;13.58;100.00;101164.06;5087588;28;20052;-78
2024/04/03 06:25:32;;;;;;;34.28;32.08;;;;;;;13.73;100.00;101162.72;5090676;28;20519;-78
2024/04/03 06:27:58;;;;;;;32.90;30.80;;;;;;;13.70;100.00;101171.16;5091216;28;20055;-74
2024/04/03 06:30:26;;;;;;;31.00;29.00;;;;;;;14.98;100.00;101172.53;5095451;28;20048;-74
2024/04/03 06:32:54;;;;;;;31.85;29.85;;;;;;;14.21;100.00;101182.72;5089860;28;20048;-74
2024/04/03 06:35:24;;;;;;;32.03;29.92;;;;;;;13.38;100.00;101165.00;5098828;28;20055;-74
2024/04/03 06:37:52;;;;;;;35.30;33.10;;;;;;;13.49;100.00;101166.16;5090575;28;20051;-74
2024/04/03 06:40:20;;;;;;;36.72;34.53;;;;;;;13.34;100.00;101160.31;5089569;28;20130;-74
2024/04/03 06:42:49;;;;;;;33.80;31.70;;;;;;;14.86;100.00;101160.94;5088074;28;20052;-74
2024/04/03 06:45:17;;;;;;;35.47;33.28;;;;;;;14.29;100.00;101160.25;5103323;28;20171;-78
2024/04/03 06:47:47;;;;;;;34.70;32.50;;;;;;;14.05;100.00;101159.22;5100285;28;20067;-78
2024/04/03 06:50:16;;;;;;;33.60;31.30;;;;;;;14.56;100.00;101167.00;5089212;28;20048;-78
2024/04/03 06:52:43;;;;;;;36.05;33.75;;;;;;;15.06;100.00;101161.50;5096871;28;20070;-78
2024/04/03 06:55:16;;;;;;;32.88;30.77;;;;;;;14.35;100.00;101167.41;5103037;28;20043;-74
2024/04/03 06:57:43;;;;;;;34.17;31.98;;;;;;;14.23;100.00;101167.28;5103433;28;20892;-74
2024/04/03 07:00:11;;;;;;;31.88;29.77;;;;;;;14.15;100.00;101171.03;5099901;28;20425;-74
2024/04/03 07:02:38;;;;;;;32.15;30.05;;;;;;;14.45;100.00;101162.34;5087822;28;20066;-74
2024/04/03 07:05:07;;;;;;;35.10;32.88;;;;;;;15.72;100.00;101167.84;5098461;28;20130;-75
2024/04/03 07:07:34;;;;;;;33.40;31.20;;;;;;;14.82;100.00;101173.09;5100597;28;20052;-75
2024/04/03 07:10:00;;;;;;;34.10;31.90;;;;;;;15.65;100.00;101169.78;5094487;28;20517;-74
2024/04/03 07:12:27;;;;;;;34.72;32.53;;;;;;;15.25;100.00;101167.66;5094551;28;20139;-74
2024/04/03 07:14:54;;;;;;;35.00;32.70;;;;;;;14.74;100.00;101174.22;5091772;28;20055;-74
2024/04/03 07:17:22;;;;;;;39.53;37.03;;;;;;;14.67;100.00;101181.47;5088993;28;20055;-75
2024/04/03 07:19:48;;;;;;;38.58;36.08;;;;;;;15.17;100.00;101165.28;5096520;28;20047;-74
2024/04/03 07:22:16;;;;;;;36.28;33.97;;;;;;;15.18;100.00;101172.25;5098861;28;20074;-78
2024/04/03 07:24:42;;;;;;;38.55;36.05;;;;;;;16.01;100.00;101162.69;5105612;28;20058;-78
2024/04/03 07:27:09;;;;;;;36.85;34.35;;;;;;;16.86;100.00;101174.81;5092838;28;20047;-78
2024/04/03 07:29:36;;;;;;;35.85;33.45;;;;;;;15.69;100.00;101160.28;5100986;28;20526;-78
2024/04/03 07:32:03;;;;;;;34.58;32.28;;;;;;;16.62;100.00;101164.06;5100347;28;20063;-78
2024/04/03 07:34:29;;;;;;;33.20;30.90;;;;;;;16.94;100.00;101153.78;5093695;28;20063;-78
2024/04/03 07:36:56;;;;;;;34.10;31.63;;;;;;;16.15;100.00;101164.06;5094349;28;20047;-78
2024/04/03 07:39:25;;;;;;;34.13;31.83;;;;;;;15.21;100.00;101158.44;5100843;28;20056;-78
2024/04/03 07:41:54;;;;;;;35.72;33.22;;;;;;;15.37;100.00;101157.00;5094561;28;20044;-78
2024/04/03 07:44:21;;;;;;;34.17;31.88;;;;;;;15.83;100.00;101160.09;5101608;28;20055;-78
2024/04/03 07:46:49;;;;;;;36.78;34.35;;;;;;;15.58;100.00;101155.66;5092141;28;20989;-78
2024/04/03 07:49:15;;;;;;;33.42;31.23;;;;;;;17.03;100.00;101148.84;5102272;28;20084;-78
2024/04/03 07:51:48;;;;;;;33.30;31.10;;;;;;;16.47;100.00;101161.88;5089238;28;20055;-75
2024/04/03 07:54:14;;;;;;;34.72;32.42;;;;;;;16.60;100.00;101158.13;5110483;28;20050;-75
2024/04/03 07:56:52;;;;;;;32.33;30.23;;;;;;;17.50;100.00;101148.66;5098842;28;20101;-74
2024/04/03 07:59:21;;;;;;;35.30;32.90;;;;;;;16.11;100.00;101167.47;5081675;28;20047;-74
2024/04/03 08:01:48;;;;;;;33.35;31.05;;;;;;;16.34;100.00;101172.84;5104152;28;20050;-74
2024/04/03 08:04:16;;;;;;;33.28;30.92;;;;;;;16.58;100.00;101167.44;5094602;28;20051;-78
2024/04/03 08:06:43;;;;;;;33.80;31.40;;;;;;;16.64;100.00;101169.19;5098334;28;20040;-75
2024/04/03 08:09:11;;;;;;;33.50;31.30;;;;;;;16.67;100.00;101172.25;5101346;28;20051;-74
2024/04/03 08:11:39;;;;;;;32.65;30.55;;;;;;;16.27;100.00;101172.94;5096467;28;20048;-74
2024/04/03 08:14:07;;;;;;;31.70;29.50;;;;;;;16.71;100.00;101172.56;5103448;28;20627;-75
2024/04/03 08:16:39;;;;;;;32.08;29.90;;;;;;;17.38;100.00;101172.06;5097050;28;20831;-74
2024/04/03 08:19:05;;;;;;;31.45;29.35;;;;;;;17.42;100.00;101173.22;5097654;28;20048;-74
2024/04/03 08:21:32;;;;;;;33.33;31.02;;;;;;;17.75;100.00;101193.16;5108761;28;20083;-74
2024/04/03 08:23:58;;;;;;;32.33;30.13;;;;;;;16.84;100.00;101174.22;5096716;28;20047;-74
2024/04/03 08:26:26;;;;;;;34.47;31.45;;;;;;;17.21;100.00;101184.63;5106248;28;20777;-75
2024/04/03 08:28:55;;;;;;;34.63;32.22;;;;;;;17.76;100.00;101178.66;5111040;28;20051;-74
2024/04/03 08:31:25;;;;;;;32.70;30.40;;;;;;;17.61;100.00;101181.91;5101340;28;20117;-74
2024/04/03 08:33:52;;;;;;;32.90;30.70;;;;;;;16.75;100.00;101189.81;5099553;28;20055;-74
2024/04/03 08:36:19;;;;;;;35.75;33.15;;;;;;;16.45;100.00;101189.97;5092444;28;20521;-74
2024/04/03 08:38:45;;;;;;;36.35;33.65;;;;;;;16.80;100.00;101189.97;5090292;28;20049;-74
2024/04/03 08:41:12;;;;;;;35.80;33.20;;;;;;;17.50;100.00;101190.81;5094576;28;20051;-74
2024/04/03 08:43:38;;;;;;;35.25;32.65;;;;;;;17.95;100.00;101185.47;5090566;28;20097;-75
2024/04/03 08:46:05;;;;;;;35.10;32.58;;;;;;;17.27;100.00;101189.03;5090820;28;20062;-74
2024/04/03 08:48:35;;;;;;;36.33;33.63;;;;;;;16.86;100.00;101198.94;5096513;28;20058;-74
2024/04/03 08:51:03;;;;;;;35.28;32.67;;;;;;;17.80;100.00;101190.59;5086987;28;20137;-72
2024/04/03 08:53:29;;;;;;;34.22;31.73;;;;;;;17.21;100.00;101193.47;5091981;28;20051;-76
2024/04/03 08:56:02;;;;;;;35.40;32.80;;;;;;;18.22;100.00;101191.00;5105522;28;20051;-77
2024/04/03 08:58:29;;;;;;;35.45;32.85;;;;;;;19.23;100.00;101198.84;5097245;28;20056;-78
2024/04/03 09:00:58;;;;;;;34.08;31.67;;;;;;;18.27;100.00;101191.06;5092275;28;20101;-78
2024/04/03 09:03:24;;;;;;;35.17;32.70;;;;;;;18.72;100.00;101192.00;5095144;28;20790;-77
2024/04/03 09:05:54;;;;;;;34.75;32.25;;;;;;;18.76;100.00;101180.53;5101899;28;20055;-75
2024/04/03 09:08:23;;;;;;;37.67;35.05;;;;;;;18.73;100.00;101175.66;5100982;28;20484;-78
2024/04/03 09:10:54;;;;;;;35.65;33.05;;;;;;;18.61;100.00;101172.22;5104276;28;20496;-78
2024/04/03 09:13:24;;;;;;;37.33;34.65;;;;;;;17.38;100.00;101180.13;5076548;28;20502;-78
2024/04/03 09:15:53;;;;;;;35.85;33.25;;;;;;;17.80;100.00;101169.09;5100906;28;20577;-78
2024/04/03 09:18:20;;;;;;;35.20;32.63;;;;;;;17.95;100.00;101165.84;5099937;28;20043;-78
2024/04/03 09:20:51;;;;;;;35.38;32.78;;;;;;;18.88;100.00;101163.41;5090129;28;20052;-78
2024/04/03 09:23:19;;;;;;;36.92;34.22;;;;;;;20.53;100.00;101160.13;5103538;28;20493;-78
2024/04/03 09:25:46;;;;;;;38.95;36.05;;;;;;;19.26;100.00;101161.72;5095040;28;20079;-77
2024/04/03 09:28:13;;;;;;;38.53;35.83;;;;;;;19.41;100.00;101159.19;5108868;28;20092;-78
2024/04/03 09:30:41;;;;;;;37.15;34.45;;;;;;;19.15;100.00;101155.41;5103352;28;20044;-78
2024/04/03 09:33:07;;;;;;;38.22;35.50;;;;;;;19.18;100.00;101169.19;5091491;28;20048;-78
2024/04/03 09:35:57;;;;;;;35.47;32.97;;;;;;;18.23;100.00;101170.31;5082221;28;20047;-76
2024/04/03 09:38:25;;;;;;;38.08;35.28;;;;;;;19.00;100.00;101169.50;5100054;28;20040;-75
2024/04/03 09:40:54;;;;;;;36.50;34.00;;;;;;;19.57;100.00;101160.16;5098653;28;20071;-76
2024/04/03 09:43:24;;;;;;;37.50;34.90;;;;;;;18.46;100.00;101158.56;5089387;28;20051;-75
2024/04/03 09:46:00;;;;;;;38.75;36.00;;;;;;;19.13;100.00;101160.25;5095428;28;20124;-76
2024/04/03 09:48:27;;;;;;;39.97;37.17;;;;;;;19.82;100.00;101159.63;5103276;28;20429;-75
2024/04/03 09:50:55;;;;;;;40.22;37.42;;;;;;;18.18;100.00;101162.16;5095020;28;20058;-75
2024/04/03 09:53:27;;;;;;;38.58;35.78;;;;;;;18.73;100.00;101166.75;5100500;28;20051;-76
2024/04/03 09:55:55;;;;;;;38.30;35.40;;;;;;;18.55;100.00;101165.16;5105919;28;20055;-76
2024/04/03 09:58:26;;;;;;;41.47;38.47;;;;;;;18.91;100.00;101153.00;5108172;28;20097;-76
2024/04/03 10:00:55;;;;;;;40.30;37.30;;;;;;;19.27;100.00;101153.38;5088921;28;20503;-75
2024/04/03 10:03:22;;;;;;;39.95;37.05;;;;;;;18.49;100.00;101150.81;5107101;28;20484;-75
2024/04/03 10:05:49;;;;;;;37.58;34.88;;;;;;;19.22;98.98;101153.34;5103386;28;20051;-75
2024/04/03 10:08:17;;;;;;;38.45;35.65;;;;;;;19.77;100.00;101133.41;5095282;28;20502;-74
2024/04/03 10:10:47;;;;;;;39.28;36.58;;;;;;;19.25;100.00;101135.88;5100549;28;20043;-75
2024/04/03 10:13:29;;;;;;;36.35;33.85;;;;;;;19.96;100.00;101131.13;5091312;28;20435;-75
2024/04/03 10:16:03;;;;;;;38.78;36.08;;;;;;;19.11;100.00;101141.63;5089352;28;20067;-75
2024/04/03 10:18:34;;;;;;;36.53;33.95;;;;;;;19.57;89.54;101131.31;5089677;28;20457;-76
2024/04/03 10:21:02;;;;;;;36.50;34.03;;;;;;;19.36;100.00;101127.63;5083374;28;20063;-75
2024/04/03 10:23:28;;;;;;;37.58;35.08;;;;;;;19.63;99.87;101124.09;5100071;28;20556;-78
2024/04/03 10:25:58;;;;;;;34.20;31.80;;;;;;;19.49;100.00;101131.81;5101716;28;20503;-78
2024/04/03 10:28:24;;;;;;;34.42;32.05;;;;;;;19.32;100.00;101126.50;5109076;28;20048;-78
2024/04/03 10:30:56;;;;;;;35.13;32.83;;;;;;;19.86;96.77;101128.38;5091149;28;20040;-78
2024/04/03 10:33:28;;;;;;;35.85;33.45;;;;;;;19.91;88.41;101120.34;5102053;28;20062;-78
2024/04/03 10:35:58;;;;;;;37.47;35.17;;;;;;;19.52;100.00;101127.78;5099510;28;20100;-78
2024/04/03 10:38:25;;;;;;;35.50;32.90;;;;;;;21.09;88.87;101113.66;5096494;28;20055;-78
2024/04/03 10:40:52;;;;;;;32.85;30.45;;;;;;;20.38;81.65;101102.56;5102648;28;20507;-78
2024/04/03 10:43:21;;;;;;;34.40;31.77;;;;;;;21.07;88.08;101105.00;5100169;28;20105;-78
2024/04/03 10:45:51;;;;;;;34.00;31.40;;;;;;;20.87;77.60;101107.63;5099115;28;20072;-78
2024/04/03 10:48:31;;;;;;;37.75;35.05;;;;;;;20.43;82.86;101116.06;5092771;28;20098;-78
2024/04/03 10:50:58;;;;;;;36.45;33.65;;;;;;;20.78;93.01;101112.72;5103468;28;20105;-78
2024/04/03 10:53:25;;;;;;;36.38;33.78;;;;;;;20.68;96.18;101100.03;5099807;28;20254;-76
2024/04/03 10:55:55;;;;;;;38.03;35.33;;;;;;;20.94;80.86;101108.22;5103526;28;20055;-75
2024/04/03 10:58:22;;;;;;;38.08;35.38;;;;;;;21.35;76.48;101101.00;5093513;28;20408;-75
2024/04/03 11:00:52;;;;;;;37.22;34.53;;;;;;;21.45;76.46;101084.84;5100316;28;20164;-76
2024/04/03 11:03:19;;;;;;;34.63;32.13;;;;;;;21.81;68.47;101098.31;5105951;28;20525;-75
2024/04/03 11:05:48;;;;;;;34.00;31.50;;;;;;;20.30;91.01;101098.44;5099700;28;20108;-76
2024/04/03 11:08:15;;;;;;;34.42;31.92;;;;;;;23.15;70.91;101101.41;5100820;28;20047;-75
2024/04/03 11:10:42;;;;;;;34.97;32.47;;;;;;;20.21;82.44;101094.63;5106820;28;20123;-78
2024/04/03 11:13:19;;;;;;;34.63;32.15;;;;;;;21.72;72.78;101086.44;5104063;28;20048;-78